Página principal
METAR-TAF:

METAR-TAF

Aeroportos :

Granada, Espanha

Aeroporto Federico García Lorca Granada-Jaén

latitude: 37-11N, longitude: 003-47W, altura: 567 m

Observação actual do tempo

O boletim foi feito há 4 horas e 19 minutos, às 00:30 UTC
Vento calmo
Temperatura 2°C
Humidade 75%
Pressão 1008 hPa
Visibilidade 10 km ou mais
Encobertoa uma altura de 8700 ft

METAR: LEGR 220030Z AUTO 00000KT 9999 OVC087 02/M02 Q1008

Hora: 05:49 (04:49 UTC)

Previsão

O boletim foi feito há 8 horas e 49 minutos, às 20:00 UTC
Previsão válida de 21 às 21 UTC a 22 às 21 UTC
Vento 2 kt com direcção variável
Visibilidade 10 km ou mais
Poucas nuvensa uma altura de 4000 ft
Nuvens dispersasa uma altura de 6500 ft
Tornando-se
de 22 às 11 UTC a 22 às 14 UTC
Vento 11 kt de oes-noroeste
Tornando-se
de 22 às 18 UTC a 22 às 21 UTC
Vento 3 kt de nor-nordeste

TAF: LEGR 212000Z 2121/2221 VRB02KT 9999 FEW040 SCT065 TX14/2215Z TNM01/2207Z BECMG 2211/2214 29011KT BECMG 2218/2221 03003KT

Observações e previsões do tempo de mais de 4000 aeroportos (mensagens METAR e TAF).

As estações disponíveis são os pontos amarelos e vermelhos sobre o mapa.

Mova o rato sobre o mapa para ver o nome da estação.

Depois clique no ponto para visualizar as observações e previsões meteorológicas.

Para alterar o mapa : clique nos botões verdes com uma cruz preta para aumentar o zoom; no botão verde com uma pitada de zoom; ou nas setas verdes para mapas adjacentes.


METAR-TAF: